Time;durP1;ratioP1;P1;durP2;ratioP2;P2;SDS_P1;SDS_P2;PMS_P1;PMS_P2;Temp;Humidity;BMP_temperature;BMP_pressure;BME280_temperature;BME280_humidity;BME280_pressure;Samples;Min_cycle;Max_cycle;Signal;HPM_P1;HPM_P2
2022/09/20 00:00:14;;;;;;;7.88;0.93;;;;;;;;;;10403824;28;20459;-51
2022/09/20 00:05:15;;;;;;;1.70;0.90;;;;;;;;;;10416407;28;20025;-50
2022/09/20 00:10:15;;;;;;;1.10;1.00;;;;;;;;;;10403513;28;20033;-48
2022/09/20 00:15:15;;;;;;;5.30;0.93;;;;;;;;;;10428406;28;20033;-51
2022/09/20 00:20:16;;;;;;;2.42;1.35;;;;;;;;;;10438685;28;20025;-49
2022/09/20 00:25:17;;;;;;;1.77;1.00;;;;;;;;;;10436155;28;20082;-50
2022/09/20 00:30:17;;;;;;;2.95;1.27;;;;;;;;;;10404245;28;20068;-50
2022/09/20 00:35:17;;;;;;;1.00;0.90;;;;;;;;;;10396697;28;20125;-48
2022/09/20 00:40:19;;;;;;;1.50;1.23;;;;;;;;;;10393563;28;20029;-52
2022/09/20 00:45:21;;;;;;;2.50;0.85;;;;;;;;;;10403614;28;20041;-49
2022/09/20 00:50:27;;;;;;;1.20;0.75;;;;;;;;;;10410290;28;20164;-47
2022/09/20 00:55:28;;;;;;;0.90;0.90;;;;;;;;;;10418547;28;20065;-48
2022/09/20 01:00:28;;;;;;;1.42;0.90;;;;;;;;;;10416250;28;20040;-46
2022/09/20 01:05:28;;;;;;;0.67;0.67;;;;;;;;;;10434225;28;20041;-47
2022/09/20 01:10:29;;;;;;;0.80;0.80;;;;;;;;;;10406048;28;20067;-45
2022/09/20 01:15:30;;;;;;;1.93;1.00;;;;;;;;;;10438627;28;20560;-47
2022/09/20 01:20:32;;;;;;;1.27;0.93;;;;;;;;;;10393654;28;20026;-46
2022/09/20 01:25:38;;;;;;;1.38;0.82;;;;;;;;;;10409265;28;20029;-47
2022/09/20 01:30:47;;;;;;;1.52;0.68;;;;;;;;;;10416602;28;20029;-47
2022/09/20 01:35:49;;;;;;;3.53;1.05;;;;;;;;;;10412721;28;20107;-49
2022/09/20 01:40:49;;;;;;;5.55;1.13;;;;;;;;;;10411128;28;20080;-47
2022/09/20 01:45:49;;;;;;;1.42;0.88;;;;;;;;;;10402776;28;20033;-46
2022/09/20 01:50:49;;;;;;;3.33;0.90;;;;;;;;;;10401677;28;20548;-47
2022/09/20 01:56:05;;;;;;;1.13;0.70;;;;;;;;;;10401136;28;20413;-46
2022/09/20 02:01:15;;;;;;;2.10;0.90;;;;;;;;;;10403403;28;20029;-48
2022/09/20 02:06:24;;;;;;;0.98;0.80;;;;;;;;;;10408846;28;20116;-46
2022/09/20 02:11:44;;;;;;;0.80;0.80;;;;;;;;;;10408224;28;20429;-45
2022/09/20 02:16:55;;;;;;;0.95;0.80;;;;;;;;;;10397074;28;20044;-53
2022/09/20 02:22:14;;;;;;;0.80;0.80;;;;;;;;;;10400431;28;20017;-49
2022/09/20 02:27:33;;;;;;;1.50;0.88;;;;;;;;;;10416176;28;20033;-53
2022/09/20 02:32:36;;;;;;;0.80;0.77;;;;;;;;;;10449275;28;20033;-52
2022/09/20 02:37:46;;;;;;;0.82;0.82;;;;;;;;;;10441052;28;20104;-52
2022/09/20 02:42:52;;;;;;;0.75;0.75;;;;;;;;;;10424710;28;20086;-50
2022/09/20 02:47:55;;;;;;;0.60;0.60;;;;;;;;;;10437134;28;20029;-52
2022/09/20 02:52:56;;;;;;;2.28;0.80;;;;;;;;;;10446789;28;20052;-50
2022/09/20 02:57:59;;;;;;;3.15;0.70;;;;;;;;;;10411181;28;20025;-49
2022/09/20 03:03:22;;;;;;;3.35;0.90;;;;;;;;;;10414287;28;20389;-46
2022/09/20 03:08:33;;;;;;;2.05;0.80;;;;;;;;;;10437388;28;20029;-47
2022/09/20 03:13:47;;;;;;;0.80;0.70;;;;;;;;;;10399518;28;20029;-49
2022/09/20 03:18:50;;;;;;;1.25;1.00;;;;;;;;;;10412991;28;20128;-49
2022/09/20 03:23:53;;;;;;;1.45;0.80;;;;;;;;;;10399360;28;20022;-50
2022/09/20 03:28:53;;;;;;;0.70;0.70;;;;;;;;;;10410286;28;20053;-50
2022/09/20 03:34:13;;;;;;;3.45;0.70;;;;;;;;;;10410479;28;20068;-50
2022/09/20 03:39:13;;;;;;;1.20;0.70;;;;;;;;;;10409962;28;20065;-47
2022/09/20 03:44:22;;;;;;;0.85;0.57;;;;;;;;;;10409902;28;20049;-48
2022/09/20 03:49:41;;;;;;;2.42;0.90;;;;;;;;;;10398660;28;20377;-48
2022/09/20 03:54:47;;;;;;;1.17;0.68;;;;;;;;;;10409356;28;20103;-49
2022/09/20 03:59:47;;;;;;;0.93;0.60;;;;;;;;;;10397489;28;20485;-47
2022/09/20 04:04:54;;;;;;;1.80;0.80;;;;;;;;;;10422333;28;20071;-50
2022/09/20 04:10:06;;;;;;;1.40;0.77;;;;;;;;;;10396007;28;20083;-48
2022/09/20 04:15:25;;;;;;;0.60;0.60;;;;;;;;;;10409921;28;20095;-52
2022/09/20 04:20:45;;;;;;;2.42;1.00;;;;;;;;;;10409029;28;20030;-48
2022/09/20 04:25:46;;;;;;;0.77;0.70;;;;;;;;;;10421571;28;20025;-49
2022/09/20 04:30:48;;;;;;;0.98;0.60;;;;;;;;;;10409784;28;20081;-50
2022/09/20 04:41:38;;;;;;;1.17;0.70;;;;;;;;;;10385295;28;20030;-50
2022/09/20 04:46:56;;;;;;;0.80;0.80;;;;;;;;;;10409498;28;20034;-50
2022/09/20 04:51:57;;;;;;;;;;;;;;;;;;10392640;28;20042;-50
2022/09/20 04:57:16;;;;;;;0.88;0.60;;;;;;;;;;10424246;28;20334;-51
2022/09/20 05:02:16;;;;;;;;;;;;;;;;;;10409183;28;20030;-48
2022/09/20 05:07:32;;;;;;;0.52;0.50;;;;;;;;;;10406489;28;19913;-48
2022/09/20 05:12:40;;;;;;;3.00;1.15;;;;;;;;;;10388777;28;20094;-48
2022/09/20 05:17:40;;;;;;;2.50;0.60;;;;;;;;;;10400155;28;20025;-51
2022/09/20 05:22:56;;;;;;;10.77;0.85;;;;;;;;;;10377571;28;20037;-52
2022/09/20 05:28:02;;;;;;;2.33;1.00;;;;;;;;;;10402099;28;20476;-56
2022/09/20 05:33:14;;;;;;;16.98;0.93;;;;;;;;;;10397006;28;20076;-49
2022/09/20 05:38:15;;;;;;;2.47;1.13;;;;;;;;;;10390527;28;20076;-50
2022/09/20 05:43:29;;;;;;;4.22;0.93;;;;;;;;;;10412734;28;20028;-47
2022/09/20 05:48:48;;;;;;;3.47;1.17;;;;;;;;;;10406314;28;20024;-50
2022/09/20 05:54:14;;;;;;;5.68;1.00;;;;;;;;;;10390485;28;20492;-53
2022/09/20 05:59:28;;;;;;;2.05;0.82;;;;;;;;;;10380321;28;20497;-49
2022/09/20 06:04:33;;;;;;;9.15;1.17;;;;;;;;;;10400645;28;20061;-53
2022/09/20 06:09:33;;;;;;;4.38;1.05;;;;;;;;;;10401719;28;20129;-49
2022/09/20 06:14:38;;;;;;;3.50;0.95;;;;;;;;;;10401137;28;20095;-51
2022/09/20 06:19:45;;;;;;;3.83;1.00;;;;;;;;;;10421688;28;20500;-49
2022/09/20 06:24:47;;;;;;;2.03;1.05;;;;;;;;;;10415518;28;20018;-52
2022/09/20 06:29:51;;;;;;;0.85;0.85;;;;;;;;;;10417760;28;20354;-48
2022/09/20 06:34:52;;;;;;;6.65;1.10;;;;;;;;;;10404863;28;20040;-52
2022/09/20 06:45:31;;;;;;;4.35;0.88;;;;;;;;;;10419526;28;20041;-50
2022/09/20 06:50:35;;;;;;;8.33;1.00;;;;;;;;;;10417460;28;20389;-49
2022/09/20 06:55:37;;;;;;;3.40;0.98;;;;;;;;;;10421071;28;20056;-49
2022/09/20 07:00:38;;;;;;;3.97;1.25;;;;;;;;;;10415207;28;20033;-51
2022/09/20 07:05:39;;;;;;;3.63;1.08;;;;;;;;;;10417927;28;20038;-52
2022/09/20 07:10:40;;;;;;;0.75;0.75;;;;;;;;;;10412506;28;20392;-53
2022/09/20 07:15:40;;;;;;;1.60;1.00;;;;;;;;;;10426616;28;20386;-49
2022/09/20 07:20:40;;;;;;;4.57;0.90;;;;;;;;;;10426502;28;20035;-48
2022/09/20 07:25:41;;;;;;;1.93;0.77;;;;;;;;;;10429330;28;20381;-49
2022/09/20 07:30:42;;;;;;;2.83;0.68;;;;;;;;;;10420329;28;20469;-48
2022/09/20 07:35:42;;;;;;;2.63;0.70;;;;;;;;;;10425474;28;20030;-50
2022/09/20 07:40:45;;;;;;;1.35;0.75;;;;;;;;;;10412399;28;20021;-48
2022/09/20 07:45:48;;;;;;;2.85;0.88;;;;;;;;;;10409929;28;20480;-50
2022/09/20 07:50:49;;;;;;;1.10;0.85;;;;;;;;;;10408563;28;20025;-55
2022/09/20 07:55:59;;;;;;;4.18;1.10;;;;;;;;;;10401224;28;20042;-56
2022/09/20 08:01:00;;;;;;;2.17;1.00;;;;;;;;;;10418055;28;20381;-54
2022/09/20 08:06:02;;;;;;;0.95;0.80;;;;;;;;;;10407002;28;20079;-52
2022/09/20 08:11:07;;;;;;;4.85;0.73;;;;;;;;;;10402562;28;20083;-57
2022/09/20 08:16:09;;;;;;;8.35;1.00;;;;;;;;;;10409832;28;20075;-60
2022/09/20 08:21:10;;;;;;;4.30;0.90;;;;;;;;;;10410327;28;20168;-51
2022/09/20 08:26:11;;;;;;;2.22;1.00;;;;;;;;;;10413292;28;20505;-53
2022/09/20 08:31:15;;;;;;;2.35;1.10;;;;;;;;;;10421971;28;20052;-54
2022/09/20 08:36:17;;;;;;;2.55;0.90;;;;;;;;;;10391537;28;20030;-49
2022/09/20 08:41:26;;;;;;;1.65;0.80;;;;;;;;;;10406360;28;20040;-52
2022/09/20 08:46:28;;;;;;;2.05;0.90;;;;;;;;;;10395541;28;20116;-48
2022/09/20 08:51:33;;;;;;;1.85;0.90;;;;;;;;;;10403996;28;20101;-52
2022/09/20 08:56:37;;;;;;;0.70;0.70;;;;;;;;;;10406710;28;20095;-52
2022/09/20 09:01:37;;;;;;;1.67;0.90;;;;;;;;;;10409662;28;20119;-54
2022/09/20 09:06:37;;;;;;;1.58;0.90;;;;;;;;;;10407082;28;20516;-52
2022/09/20 09:11:39;;;;;;;3.47;0.70;;;;;;;;;;10397512;28;20041;-55
2022/09/20 09:16:40;;;;;;;1.52;0.98;;;;;;;;;;10405294;28;20761;-52
2022/09/20 09:21:41;;;;;;;2.42;0.90;;;;;;;;;;10407400;28;20592;-53
2022/09/20 09:26:42;;;;;;;1.92;1.00;;;;;;;;;;10399916;28;20022;-54
2022/09/20 09:31:44;;;;;;;1.15;0.85;;;;;;;;;;10404803;28;20029;-53
2022/09/20 09:36:44;;;;;;;1.23;0.88;;;;;;;;;;10399937;28;20057;-54
2022/09/20 09:41:45;;;;;;;1.60;0.82;;;;;;;;;;10406299;28;20087;-56
2022/09/20 09:46:45;;;;;;;4.72;1.00;;;;;;;;;;10394459;28;20029;-48
2022/09/20 09:51:52;;;;;;;2.08;1.02;;;;;;;;;;10398563;28;20064;-57
2022/09/20 09:57:01;;;;;;;2.22;1.10;;;;;;;;;;10406117;28;20518;-48
2022/09/20 10:02:05;;;;;;;1.65;0.90;;;;;;;;;;10406098;28;20029;-50
2022/09/20 10:07:11;;;;;;;3.58;1.00;;;;;;;;;;10399219;28;20481;-51
2022/09/20 10:12:15;;;;;;;1.65;1.10;;;;;;;;;;10394868;28;20091;-57
2022/09/20 10:17:54;;;;;;;1.83;0.80;;;;;;;;;;10402185;28;20341;-55
2022/09/20 10:23:13;;;;;;;1.08;0.63;;;;;;;;;;10312714;28;20030;-54
2022/09/20 10:28:16;;;;;;;5.50;1.05;;;;;;;;;;10317904;28;20046;-50
2022/09/20 10:33:22;;;;;;;0.85;0.80;;;;;;;;;;10317714;28;20050;-57
2022/09/20 10:38:26;;;;;;;1.38;0.80;;;;;;;;;;10318824;28;20038;-56
2022/09/20 10:43:32;;;;;;;0.80;0.65;;;;;;;;;;10320357;28;20022;-48
2022/09/20 10:48:55;;;;;;;1.98;0.80;;;;;;;;;;10325574;28;20166;-52
2022/09/20 10:54:01;;;;;;;1.92;0.98;;;;;;;;;;10376868;28;20444;-47
2022/09/20 10:59:15;;;;;;;1.02;0.73;;;;;;;;;;10412801;28;20132;-48
2022/09/20 11:04:50;;;;;;;0.95;0.80;;;;;;;;;;10414018;28;20388;-49
2022/09/20 11:10:00;;;;;;;1.92;0.80;;;;;;;;;;10360310;28;20469;-54
2022/09/20 11:15:15;;;;;;;3.10;0.70;;;;;;;;;;10404391;28;20058;-50
2022/09/20 11:20:21;;;;;;;1.33;0.80;;;;;;;;;;10393316;28;20038;-50
2022/09/20 11:25:25;;;;;;;2.47;0.93;;;;;;;;;;10395621;28;20034;-50
2022/09/20 11:30:27;;;;;;;1.92;0.70;;;;;;;;;;10426908;28;20684;-50
2022/09/20 11:35:45;;;;;;;1.15;0.80;;;;;;;;;;10413182;28;20060;-49
2022/09/20 11:40:49;;;;;;;3.83;0.80;;;;;;;;;;10412819;28;20025;-62
2022/09/20 11:45:52;;;;;;;1.95;0.88;;;;;;;;;;10403667;28;20048;-50
2022/09/20 11:50:53;;;;;;;2.78;0.85;;;;;;;;;;10424559;28;20036;-49
2022/09/20 11:56:02;;;;;;;1.52;0.85;;;;;;;;;;10423936;28;20042;-51
2022/09/20 12:01:11;;;;;;;1.08;0.90;;;;;;;;;;10423239;28;20037;-50
2022/09/20 12:06:25;;;;;;;1.08;0.80;;;;;;;;;;10411714;28;20033;-50
2022/09/20 12:11:31;;;;;;;4.10;0.90;;;;;;;;;;10405953;28;20111;-51
2022/09/20 12:16:39;;;;;;;2.05;0.90;;;;;;;;;;10424317;28;20393;-49
2022/09/20 12:21:58;;;;;;;1.00;0.80;;;;;;;;;;10409074;28;20021;-47
2022/09/20 12:26:59;;;;;;;2.70;0.88;;;;;;;;;;10405309;28;20333;-51
2022/09/20 12:32:01;;;;;;;4.20;0.70;;;;;;;;;;10402273;28;20036;-52
2022/09/20 12:37:02;;;;;;;0.80;0.73;;;;;;;;;;10404908;28;20037;-51
2022/09/20 12:42:09;;;;;;;0.82;0.80;;;;;;;;;;10400441;28;20025;-48
2022/09/20 12:47:09;;;;;;;1.35;0.93;;;;;;;;;;10400148;28;20423;-49
2022/09/20 12:57:44;;;;;;;1.35;1.00;;;;;;;;;;10395848;28;20879;-48
2022/09/20 13:02:51;;;;;;;6.03;0.95;;;;;;;;;;10399752;28;20021;-48
2022/09/20 13:07:52;;;;;;;2.33;1.00;;;;;;;;;;10407785;28;20029;-54
2022/09/20 13:12:56;;;;;;;2.00;0.82;;;;;;;;;;10403940;28;20021;-51
2022/09/20 13:17:58;;;;;;;3.38;0.90;;;;;;;;;;10415377;28;20026;-50
2022/09/20 13:23:00;;;;;;;2.70;1.10;;;;;;;;;;10402442;28;20136;-55
2022/09/20 13:28:00;;;;;;;5.30;1.02;;;;;;;;;;10399878;28;20021;-54
2022/09/20 13:33:19;;;;;;;3.80;0.80;;;;;;;;;;10401709;28;20033;-52
2022/09/20 13:38:23;;;;;;;0.90;0.73;;;;;;;;;;10402024;28;20432;-54
2022/09/20 13:43:37;;;;;;;0.65;0.65;;;;;;;;;;10413376;28;20021;-51
2022/09/20 13:48:37;;;;;;;0.98;0.80;;;;;;;;;;10405343;28;20026;-50
2022/09/20 13:53:38;;;;;;;1.05;0.80;;;;;;;;;;10423520;28;20410;-51
2022/09/20 13:58:38;;;;;;;2.17;0.90;;;;;;;;;;10404430;28;20461;-51
2022/09/20 14:03:38;;;;;;;3.63;0.98;;;;;;;;;;10415184;28;20036;-52
2022/09/20 14:08:47;;;;;;;0.88;0.70;;;;;;;;;;10415491;28;20087;-51
2022/09/20 14:13:48;;;;;;;1.65;0.82;;;;;;;;;;10398732;28;20034;-52
2022/09/20 14:18:49;;;;;;;1.52;0.63;;;;;;;;;;10413171;28;20203;-52
2022/09/20 14:23:50;;;;;;;1.45;0.90;;;;;;;;;;10429657;28;20218;-53
2022/09/20 14:28:51;;;;;;;1.15;0.77;;;;;;;;;;10418872;28;20109;-52
2022/09/20 14:33:53;;;;;;;2.92;0.95;;;;;;;;;;10421172;28;20132;-49
2022/09/20 14:38:58;;;;;;;1.98;0.90;;;;;;;;;;10430032;28;20091;-51
2022/09/20 14:44:01;;;;;;;1.40;0.90;;;;;;;;;;10416466;28;20056;-54
2022/09/20 14:49:20;;;;;;;1.65;0.70;;;;;;;;;;10422462;28;20447;-51
2022/09/20 14:54:25;;;;;;;1.75;0.88;;;;;;;;;;10414783;28;20049;-50
2022/09/20 14:59:29;;;;;;;1.42;0.80;;;;;;;;;;10427406;28;20628;-54
2022/09/20 15:04:31;;;;;;;5.97;0.75;;;;;;;;;;10442402;28;20200;-51
2022/09/20 15:09:32;;;;;;;0.98;0.90;;;;;;;;;;10412349;28;20053;-51
2022/09/20 15:14:32;;;;;;;2.47;0.90;;;;;;;;;;10415774;28;20124;-51
2022/09/20 15:19:33;;;;;;;1.63;1.10;;;;;;;;;;10415236;28;20481;-54
2022/09/20 15:24:33;;;;;;;2.38;1.15;;;;;;;;;;10412446;28;20042;-52
2022/09/20 15:29:33;;;;;;;4.10;1.27;;;;;;;;;;10399371;28;20026;-49
2022/09/20 15:34:34;;;;;;;2.33;1.20;;;;;;;;;;10411864;28;20084;-54
2022/09/20 15:39:34;;;;;;;3.50;1.13;;;;;;;;;;10391562;28;20049;-53
2022/09/20 15:44:34;;;;;;;2.83;1.23;;;;;;;;;;10385124;28;20034;-58
2022/09/20 15:49:35;;;;;;;2.33;0.82;;;;;;;;;;10396904;28;20397;-52
2022/09/20 15:54:35;;;;;;;1.52;1.17;;;;;;;;;;10404518;28;20037;-51
2022/09/20 15:59:35;;;;;;;2.20;1.07;;;;;;;;;;10436258;28;20021;-60
2022/09/20 16:04:36;;;;;;;2.75;1.23;;;;;;;;;;10414579;28;20492;-52
2022/09/20 16:09:37;;;;;;;3.67;1.42;;;;;;;;;;10417661;28;20021;-55
2022/09/20 16:14:37;;;;;;;1.95;1.00;;;;;;;;;;10423132;28;20029;-52
2022/09/20 16:19:38;;;;;;;1.40;1.00;;;;;;;;;;10414819;28;20028;-53
2022/09/20 16:24:39;;;;;;;1.98;1.13;;;;;;;;;;10410000;28;20052;-52
2022/09/20 16:29:39;;;;;;;1.97;1.10;;;;;;;;;;10418931;28;20040;-58
2022/09/20 16:34:39;;;;;;;7.85;1.42;;;;;;;;;;10394926;28;20038;-53
2022/09/20 16:39:40;;;;;;;1.52;1.15;;;;;;;;;;10379310;28;20026;-56
2022/09/20 16:44:41;;;;;;;9.05;1.20;;;;;;;;;;10399597;28;20184;-56
2022/09/20 16:49:42;;;;;;;5.13;1.20;;;;;;;;;;10396488;28;20053;-55
2022/09/20 16:54:42;;;;;;;2.97;1.20;;;;;;;;;;10393823;28;20135;-57
2022/09/20 16:59:44;;;;;;;1.77;0.95;;;;;;;;;;10392317;28;20447;-52
2022/09/20 17:04:44;;;;;;;1.30;0.85;;;;;;;;;;10394446;28;20094;-53
2022/09/20 17:09:44;;;;;;;1.08;0.95;;;;;;;;;;10391658;28;20475;-52
2022/09/20 17:14:45;;;;;;;1.27;0.90;;;;;;;;;;10424754;23;20044;-62
2022/09/20 17:19:45;;;;;;;2.38;1.10;;;;;;;;;;10432633;28;20584;-63
2022/09/20 17:24:45;;;;;;;2.20;1.10;;;;;;;;;;10401115;28;20056;-63
2022/09/20 17:29:46;;;;;;;2.47;1.10;;;;;;;;;;10394615;28;20467;-63
2022/09/20 17:34:46;;;;;;;2.28;1.20;;;;;;;;;;10405054;28;20458;-61
2022/09/20 17:39:46;;;;;;;1.20;0.88;;;;;;;;;;10401623;28;20025;-62
2022/09/20 17:44:47;;;;;;;1.40;1.00;;;;;;;;;;10406857;28;20030;-60
2022/09/20 17:49:47;;;;;;;3.10;1.05;;;;;;;;;;10378475;28;20022;-62
2022/09/20 17:54:47;;;;;;;1.70;0.90;;;;;;;;;;10379044;28;20121;-62
2022/09/20 17:59:48;;;;;;;1.10;0.93;;;;;;;;;;10390608;28;20581;-62
2022/09/20 18:04:48;;;;;;;1.88;0.90;;;;;;;;;;10397517;28;20026;-54
2022/09/20 18:09:48;;;;;;;1.23;0.80;;;;;;;;;;10401308;28;20041;-62
2022/09/20 18:14:49;;;;;;;2.28;1.10;;;;;;;;;;10382902;28;20499;-61
2022/09/20 18:19:49;;;;;;;3.72;1.27;;;;;;;;;;10387364;28;20164;-61
2022/09/20 18:24:49;;;;;;;1.60;0.82;;;;;;;;;;10378047;28;20055;-62
2022/09/20 18:29:50;;;;;;;3.70;1.30;;;;;;;;;;10385147;28;20153;-58
2022/09/20 18:34:50;;;;;;;1.73;1.08;;;;;;;;;;10397813;28;20034;-61
2022/09/20 18:39:50;;;;;;;1.57;1.10;;;;;;;;;;10397163;28;20112;-60
2022/09/20 18:44:50;;;;;;;1.60;1.00;;;;;;;;;;10393922;28;20065;-59
2022/09/20 18:49:51;;;;;;;3.67;1.33;;;;;;;;;;10384655;28;20032;-59
2022/09/20 18:54:54;;;;;;;9.90;1.58;;;;;;;;;;10399909;28;20036;-59
2022/09/20 18:59:55;;;;;;;4.95;1.38;;;;;;;;;;10401628;28;20044;-60
2022/09/20 19:04:56;;;;;;;5.93;1.43;;;;;;;;;;10409039;28;20025;-60
2022/09/20 19:09:59;;;;;;;5.53;1.45;;;;;;;;;;10401089;28;20042;-61
2022/09/20 19:15:21;;;;;;;3.42;1.40;;;;;;;;;;10405944;28;20478;-61
2022/09/20 19:20:28;;;;;;;2.80;1.65;;;;;;;;;;10380144;28;20064;-61
2022/09/20 19:25:38;;;;;;;2.30;1.58;;;;;;;;;;10411061;28;20038;-61
2022/09/20 19:30:40;;;;;;;2.78;1.50;;;;;;;;;;10407140;28;20136;-61
2022/09/20 19:35:42;;;;;;;2.67;1.60;;;;;;;;;;10401249;28;20384;-61
2022/09/20 19:40:53;;;;;;;1.65;1.30;;;;;;;;;;10401135;28;20181;-61
2022/09/20 19:46:12;;;;;;;2.92;1.50;;;;;;;;;;10395104;28;20487;-62
2022/09/20 19:51:12;;;;;;;5.38;1.65;;;;;;;;;;10399905;28;20057;-61
2022/09/20 19:56:16;;;;;;;4.45;1.65;;;;;;;;;;10396288;28;20116;-59
2022/09/20 20:01:16;;;;;;;7.10;1.55;;;;;;;;;;10398322;28;20029;-57
2022/09/20 20:06:19;;;;;;;10.77;1.63;;;;;;;;;;10397285;28;20029;-57
2022/09/20 20:11:27;;;;;;;3.78;1.73;;;;;;;;;;10404716;28;20467;-61
2022/09/20 20:16:33;;;;;;;3.08;1.90;;;;;;;;;;10407220;28;20506;-62
2022/09/20 20:21:39;;;;;;;5.60;1.60;;;;;;;;;;10371610;28;20026;-60
2022/09/20 20:26:40;;;;;;;2.95;1.20;;;;;;;;;;10381871;28;20033;-58
2022/09/20 20:31:40;;;;;;;1.77;1.27;;;;;;;;;;10399683;28;20504;-61
2022/09/20 20:36:43;;;;;;;2.40;1.20;;;;;;;;;;10408560;28;20059;-61
2022/09/20 20:41:51;;;;;;;3.25;1.60;;;;;;;;;;10406335;28;20032;-60
2022/09/20 20:46:51;;;;;;;2.97;1.27;;;;;;;;;;10409011;28;20033;-59
2022/09/20 20:51:51;;;;;;;6.50;1.50;;;;;;;;;;10396287;28;20033;-59
2022/09/20 20:56:52;;;;;;;7.90;1.40;;;;;;;;;;10395996;28;20037;-61
2022/09/20 21:01:52;;;;;;;1.67;1.15;;;;;;;;;;10407574;28;20369;-60
2022/09/20 21:06:53;;;;;;;8.45;2.05;;;;;;;;;;10407771;28;20522;-60
2022/09/20 21:11:53;;;;;;;5.18;1.58;;;;;;;;;;10408972;28;20063;-59
2022/09/20 21:16:53;;;;;;;4.50;1.20;;;;;;;;;;10405431;28;20059;-60
2022/09/20 21:21:54;;;;;;;4.68;1.65;;;;;;;;;;10405765;28;20029;-61
2022/09/20 21:26:54;;;;;;;8.07;1.67;;;;;;;;;;10401728;28;20021;-60
2022/09/20 21:31:54;;;;;;;3.47;1.30;;;;;;;;;;10406987;28;20098;-60
2022/09/20 21:36:54;;;;;;;3.50;1.38;;;;;;;;;;10404541;28;20021;-62
2022/09/20 21:41:56;;;;;;;3.08;1.35;;;;;;;;;;10403332;28;20071;-59
2022/09/20 21:46:56;;;;;;;6.10;1.58;;;;;;;;;;10404063;28;20469;-61
2022/09/20 21:51:56;;;;;;;2.80;1.40;;;;;;;;;;10402281;28;20120;-61
2022/09/20 21:56:58;;;;;;;6.88;1.58;;;;;;;;;;10404665;28;20495;-62
2022/09/20 22:01:58;;;;;;;4.50;1.67;;;;;;;;;;10400845;28;20129;-63
2022/09/20 22:07:01;;;;;;;11.27;1.75;;;;;;;;;;10395453;28;20468;-62
2022/09/20 22:12:01;;;;;;;4.82;1.40;;;;;;;;;;10401281;28;20084;-63
2022/09/20 22:17:01;;;;;;;14.93;2.07;;;;;;;;;;10399247;28;20040;-62
2022/09/20 22:22:02;;;;;;;2.90;1.40;;;;;;;;;;10394739;28;20026;-63
2022/09/20 22:27:02;;;;;;;2.72;1.15;;;;;;;;;;10398983;28;20427;-63
2022/09/20 22:32:02;;;;;;;11.43;1.70;;;;;;;;;;10400267;28;20044;-63
2022/09/20 22:37:03;;;;;;;16.10;2.20;;;;;;;;;;10403409;28;20028;-60
2022/09/20 22:42:03;;;;;;;13.20;2.07;;;;;;;;;;10411342;28;20029;-62
2022/09/20 22:47:03;;;;;;;8.13;1.63;;;;;;;;;;10410713;28;20026;-61
2022/09/20 22:52:04;;;;;;;3.30;1.30;;;;;;;;;;10406342;28;20022;-59
2022/09/20 22:57:04;;;;;;;6.43;1.67;;;;;;;;;;10412042;28;20030;-59
2022/09/20 23:02:05;;;;;;;5.93;1.48;;;;;;;;;;10411003;28;20033;-62
2022/09/20 23:07:05;;;;;;;6.18;1.40;;;;;;;;;;10411299;28;20025;-61
2022/09/20 23:12:05;;;;;;;1.95;1.23;;;;;;;;;;10407926;28;20048;-47
2022/09/20 23:17:06;;;;;;;9.00;1.63;;;;;;;;;;10402902;28;20264;-47
2022/09/20 23:22:06;;;;;;;10.95;1.60;;;;;;;;;;10409373;28;20516;-47
2022/09/20 23:27:06;;;;;;;5.53;1.73;;;;;;;;;;10410691;28;20263;-49
2022/09/20 23:32:06;;;;;;;9.23;1.40;;;;;;;;;;10410354;28;20120;-46
2022/09/20 23:37:07;;;;;;;5.13;1.40;;;;;;;;;;10410583;28;20157;-59
2022/09/20 23:42:07;;;;;;;9.60;1.63;;;;;;;;;;10409996;28;20037;-46
2022/09/20 23:47:07;;;;;;;3.60;1.10;;;;;;;;;;10407862;28;20041;-46
2022/09/20 23:52:08;;;;;;;7.70;1.25;;;;;;;;;;10401580;28;20025;-46
2022/09/20 23:57:08;;;;;;;4.28;1.23;;;;;;;;;;10409953;28;20025;-47
